Latest Weather Observations for Nhill Aerodrome

IDV60801

Issued at 10:31 pm EDT Thursday 5 March 2015 (issued every 30 minutes, with the page automatically refreshed every 10 minutes)

About weather observations | Map of weather stations | Latest weather observations for VIC | Other Formats
Station Details ID: 078015 Name: NHILL AERODROME Lat: -36.31 Lon: 141.65 Height: 138.9 m
Data from the previous 72 hours. | See also: Recent months at Nhill Aerodrome
Date/Time
EDT
Temp
°C
App
Temp
°C
Dew
Point
Rel
Hum
%
Delta-T
°C
Wind Press
QNH
hPa
Press
MSL
hPa
Rain
since 9 am
mm
Dir
 
Spd
km/h
Gust
km/h
Spd
kts
Gust
kts
05/10:30pm 13.8 7.7 4.9 55 4.2 SW 26 37 14 20 1019.3 1019.0 0.2
05/10:00pm 14.5 8.1 5.0 53 4.5 SW 28 39 15 21 1019.4 1019.1 0.2
05/09:30pm 14.9 7.6 4.6 50 4.8 SW 32 41 17 22 1018.8 1018.5 0.2
05/09:00pm 15.7 8.4 4.4 47 5.3 SW 32 44 17 24 1018.5 1018.2 0.2
05/08:30pm 16.6 9.6 4.0 43 5.9 SW 30 41 16 22 1018.1 1017.7 0.2
05/08:00pm 17.5 10.1 4.1 41 6.3 WSW 32 41 17 22 1018.0 1017.6 0.2
05/07:30pm 18.9 11.3 3.1 35 7.4 WSW 32 39 17 21 1017.9 1017.5 0.2
05/07:00pm 20.4 12.7 3.2 32 8.2 WSW 33 46 18 25 1017.8 1017.4 0.2
05/06:30pm 21.1 13.3 2.9 30 8.6 SW 33 46 18 25 1017.6 1017.2 0.2
05/06:00pm 21.6 13.8 2.8 29 8.9 SW 33 44 18 24 1017.3 1016.9 0.2
05/05:42pm 22.4 15.3 1.4 25 9.8 SW 28 46 15 25 1017.2 1016.8 0.2
05/05:30pm 22.4 14.6 2.0 26 9.6 SW 32 46 17 25 1017.2 1016.8 0.2
05/05:00pm 22.9 16.1 2.9 27 9.6 WSW 28 39 15 21 1017.2 1016.8 0.2
05/04:55pm 21.8 14.9 2.5 28 9.1 SW 28 46 15 25 1017.3 1016.9 0.2
05/04:30pm 22.1 15.1 1.7 26 9.5 WSW 28 37 15 20 1017.4 1017.0 0.2
05/04:00pm 22.3 15.3 1.9 26 9.6 SW 28 43 15 23 1017.9 1017.5 0.2
05/03:30pm 21.1 13.7 1.9 28 8.9 SW 30 43 16 23 1018.5 1018.2 0.2
05/03:00pm 21.0 14.8 2.3 29 8.8 SW 24 39 13 21 1018.7 1018.4 0.2
05/02:30pm 20.6 13.7 2.4 30 8.5 SW 28 43 15 23 1019.0 1018.7 0.2
05/02:00pm 20.0 13.7 1.4 29 8.5 SW 24 37 13 20 1019.4 1019.1 0.2
05/01:30pm 19.0 12.2 0.6 29 8.2 SW 26 35 14 19 1019.9 1019.6 0.2
05/01:00pm 19.1 12.4 1.6 31 8.0 SW 26 37 14 20 1020.2 1019.9 0.2
05/12:30pm 17.7 11.2 2.5 36 7.0 SW 26 37 14 20 1020.8 1020.4 0.2
05/12:00pm 16.8 10.0 3.1 40 6.3 SW 28 37 15 20 1021.1 1020.7 0.0
05/11:30am 16.5 9.0 3.6 42 6.0 SSW 32 46 17 25 1021.4 1021.0 0.0
05/11:00am 16.1 8.6 3.2 42 5.9 S 32 43 17 23 1021.3 1020.9 0.0
05/10:30am 15.6 7.2 3.7 45 5.5 SSW 37 50 20 27 1021.1 1020.7 0.0
05/10:01am 15.0 7.6 4.1 48 5.1 SSW 32 50 17 27 1020.7 1020.3 0.0
05/10:00am 15.1 7.8 4.5 49 5.0 SSW 32 41 17 22 1020.7 1020.3 0.0
05/09:30am 14.0 7.1 4.6 53 4.4 SSW 30 39 16 21 1020.2 1019.9 0.0
05/09:00am 12.9 7.5 4.3 56 3.9 SW 22 30 12 16 1020.1 1019.8 0.0
05/08:30am 11.5 6.3 5.4 66 2.8 SW 22 28 12 15 1019.7 1019.4 0.0
05/08:00am 10.0 5.5 6.2 77 1.8 SW 19 22 10 12 1019.3 1019.0 0.0
05/07:30am 9.8 5.2 5.6 75 1.9 SSW 19 20 10 11 1018.7 1018.4 0.0
05/07:00am 10.2 5.4 5.8 74 2.0 SSW 20 22 11 12 1018.0 1017.6 0.0
05/06:30am 10.7 6.1 6.5 75 2.0 SSW 20 24 11 13 1017.6 1017.2 0.0
05/06:00am 11.4 6.1 6.9 74 2.2 SSW 24 32 13 17 1017.4 1017.0 0.0
05/05:30am 12.2 5.5 7.3 72 2.4 SSW 32 41 17 22 1017.4 1017.0 0.0
05/05:00am 12.5 6.0 8.2 75 2.1 SSW 32 43 17 23 1016.8 1016.4 0.0
05/04:30am 12.6 7.7 9.8 83 1.4 SW 26 33 14 18 1016.4 1016.0 0.0
05/04:00am 13.2 7.2 10.0 81 1.7 SW 32 41 17 22 1015.9 1015.5 0.0
05/03:30am 13.7 7.2 10.3 80 1.8 SW 35 46 19 25 1015.6 1015.2 0.0
05/03:00am 14.1 6.8 10.1 77 2.1 SW 39 57 21 31 1015.5 1015.1 0.0
05/02:30am 14.5 8.4 11.6 83 1.6 SW 35 48 19 26 1015.5 1015.1 0.0
05/02:00am 15.1 9.0 11.9 81 1.7 SW 35 48 19 26 1015.2 1014.8 0.0
05/01:31am 15.0 10.1 14.4 96 0.3 WSW 33 52 18 28 1015.3 1014.9 0.0
05/01:30am 15.0 10.2 14.7 98 0.2 WSW 33 46 18 25 1015.3 1014.9 0.0
05/01:15am 15.4 10.6 13.9 91 0.8 W 32 50 17 27 1014.8 1014.4 0.0
05/01:00am 16.3 10.9 12.7 79 2.0 W 33 41 18 22 1014.6 1014.2 0.0
05/12:30am 16.6 11.0 12.2 75 2.4 W 33 43 18 23 1014.8 1014.4 0.0
05/12:00am 16.9 10.9 12.0 73 2.7 WSW 35 46 19 25 1014.7 1014.3 0.0
 
Date/Time
EDT
Temp
°C
App
Temp
°C
Dew
Point
Rel
Hum
%
Delta-T
°C
Wind Press
QNH
hPa
Press
MSL
hPa
Rain
since 9 am
mm
Dir
 
Spd
km/h
Gust
km/h
Spd
kts
Gust
kts
04/11:30pm 16.7 11.6 12.0 74 2.6 W 30 41 16 22 1014.9 1014.5 0.0
04/11:00pm 17.0 12.2 11.7 71 2.9 WSW 28 37 15 20 1015.0 1014.6 0.0
04/10:30pm 17.4 11.1 11.2 67 3.4 WSW 35 44 19 24 1015.1 1014.7 0.0
04/10:00pm 17.9 11.8 10.3 61 4.1 WSW 33 48 18 26 1014.9 1014.5 0.0
04/09:30pm 18.1 10.7 10.0 59 4.3 WSW 39 50 21 27 1014.7 1014.3 0.0
04/09:00pm 18.3 11.4 10.2 59 4.3 WSW 37 50 20 27 1014.4 1014.0 0.0
04/08:30pm 18.7 12.1 10.0 57 4.7 W 35 46 19 25 1013.9 1013.5 0.0
04/08:00pm 18.9 11.9 9.9 56 4.8 W 37 52 20 28 1014.0 1013.6 0.0
04/07:30pm 19.5 12.0 9.4 52 5.4 WSW 39 50 21 27 1014.0 1013.6 0.0
04/07:00pm 20.2 13.1 9.5 50 5.7 W 37 50 20 27 1013.9 1013.5 0.0
04/06:30pm 22.1 15.5 9.9 46 6.7 W 35 48 19 26 1013.6 1013.2 0.0
04/06:00pm 21.8 14.7 9.7 46 6.6 W 37 52 20 28 1013.5 1013.1 0.0
04/05:30pm 22.9 15.8 9.7 43 7.2 W 37 46 20 25 1013.6 1013.2 0.0
04/05:00pm 23.1 16.6 8.8 40 7.7 W 33 50 18 27 1013.7 1013.3 0.0
04/04:30pm 22.8 16.4 9.2 42 7.4 W 33 48 18 26 1014.0 1013.6 0.0
04/04:00pm 22.8 16.6 9.2 42 7.4 WSW 32 50 17 27 1014.2 1013.8 0.0
04/03:58pm 22.4 16.1 8.9 42 7.2 WSW 32 50 17 27 1014.3 1013.9 0.0
04/03:30pm 22.7 16.7 8.8 41 7.5 W 30 44 16 24 1014.5 1014.1 0.0
04/03:13pm 23.1 17.0 8.4 39 7.8 WSW 30 48 16 26 1014.6 1014.2 0.0
04/03:00pm 23.4 17.0 8.7 39 7.9 WSW 32 46 17 25 1014.6 1014.2 0.0
04/02:30pm 22.5 16.9 8.6 41 7.4 W 28 39 15 21 1015.0 1014.6 0.0
04/02:00pm 22.4 17.1 8.5 41 7.4 W 26 35 14 19 1015.5 1015.1 0.0
04/01:30pm 21.3 15.7 8.6 44 6.7 WSW 28 43 15 23 1016.0 1015.6 0.0
04/01:00pm 22.0 16.6 8.2 41 7.3 WSW 26 35 14 19 1016.5 1016.1 0.0
04/12:30pm 20.1 15.5 8.1 46 6.3 W 22 35 12 19 1016.7 1016.3 0.0
04/12:00pm 19.6 15.0 8.0 47 6.0 W 22 41 12 22 1017.0 1016.6 0.0
04/11:30am 19.0 14.1 8.4 50 5.5 WSW 24 35 13 19 1017.3 1016.9 0.0
04/11:00am 17.5 12.8 7.8 53 4.9 WSW 22 30 12 16 1017.5 1017.1 0.0
04/10:30am 17.1 12.1 8.0 55 4.6 SW 24 32 13 17 1017.5 1017.1 0.0
04/10:00am 16.7 11.7 8.1 57 4.4 SW 24 35 13 19 1017.7 1017.3 0.0
04/09:30am 16.5 12.9 8.2 58 4.2 SW 17 28 9 15 1017.8 1017.4 0.0
04/09:00am 14.3 11.6 9.1 71 2.7 WSW 13 17 7 9 1017.6 1017.2 0.0
04/08:30am 11.1 9.4 9.9 92 0.6 W 9 11 5 6 1017.4 1017.0 0.0
04/08:00am 9.3 7.7 8.7 96 0.3 W 7 7 4 4 1017.3 1016.9 0.0
04/07:30am 8.8 7.1 8.2 96 0.3 W 7 7 4 4 1016.8 1016.4 0.0
04/07:00am 9.4 7.7 8.3 93 0.5 SW 7 9 4 5 1016.4 1016.0 0.0
04/06:30am 10.1 8.7 8.7 91 0.7 SSW 6 7 3 4 1016.5 1016.1 0.0
04/06:00am 10.2 8.5 8.3 88 0.9 SW 7 9 4 5 1016.3 1015.9 0.0
04/05:30am 10.6 9.0 8.0 84 1.3 SW 6 9 3 5 1016.4 1016.0 0.0
04/05:00am 10.3 7.9 7.2 81 1.5 SSW 9 13 5 7 1016.3 1015.9 0.0
04/04:30am 10.9 7.5 7.6 80 1.6 SSW 15 20 8 11 1016.3 1015.9 0.0
04/04:00am 10.8 6.9 7.3 79 1.7 SSW 17 19 9 10 1016.4 1016.0 0.0
04/03:30am 11.3 8.2 7.4 77 1.9 SSW 13 15 7 8 1016.4 1016.0 0.0
04/03:00am 12.3 8.1 7.6 73 2.3 SW 19 20 10 11 1016.8 1016.4 0.0
04/02:30am 12.9 8.5 7.4 69 2.7 SSW 20 22 11 12 1017.0 1016.6 0.0
04/02:00am 13.1 9.2 6.9 66 3.0 SSW 17 19 9 10 1017.1 1016.7 0.0
04/01:30am 13.6 8.9 6.2 61 3.6 SSW 20 22 11 12 1017.0 1016.6 0.0
04/01:00am 14.0 9.5 5.9 58 3.9 SSW 19 20 10 11 1017.1 1016.7 0.0
04/12:30am 15.1 10.0 6.1 55 4.4 SSW 22 28 12 15 1017.4 1017.0 0.0
04/12:00am 15.9 10.9 6.3 53 4.7 SSW 22 28 12 15 1017.4 1017.0 0.0
 
Date/Time
EDT
Temp
°C
App
Temp
°C
Dew
Point
Rel
Hum
%
Delta-T
°C
Wind Press
QNH
hPa
Press
MSL
hPa
Rain
since 9 am
mm
Dir
 
Spd
km/h
Gust
km/h
Spd
kts
Gust
kts
03/11:30pm 16.7 11.7 6.5 51 5.0 SSW 22 28 12 15 1017.4 1017.0 0.0
03/11:00pm 17.8 11.8 7.0 49 5.4 SSW 28 35 15 19 1017.3 1016.9 0.0
03/10:30pm 18.7 13.9 7.2 47 5.8 SSW 22 28 12 15 1017.1 1016.7 0.0
03/10:00pm 19.8 14.6 7.2 44 6.4 SW 24 32 13 17 1016.9 1016.5 0.0
03/09:30pm 20.0 16.2 5.6 39 7.2 SSW 15 19 8 10 1016.3 1015.9 0.0
03/09:00pm 21.1 16.9 5.5 36 7.8 SSW 17 20 9 11 1015.8 1015.4 0.0
03/08:30pm 22.5 18.1 5.0 32 8.7 SW 17 22 9 12 1015.4 1015.0 0.0
03/08:00pm 24.0 18.8 5.4 30 9.4 SW 22 30 12 16 1015.1 1014.7 0.0
03/07:30pm 25.4 20.4 4.5 26 10.5 SW 20 28 11 15 1015.1 1014.7 0.0
03/07:00pm 26.0 21.1 3.9 24 11.1 SW 19 30 10 16 1014.8 1014.4 0.0
03/06:30pm 26.7 21.3 2.6 21 11.8 SW 20 30 11 16 1014.6 1014.2 0.0
03/06:00pm 26.6 20.8 2.5 21 11.8 WSW 22 32 12 17 1014.5 1014.1 0.0
03/05:30pm 26.9 21.5 2.7 21 11.9 WSW 20 30 11 16 1014.5 1014.1 0.0
03/05:00pm 27.5 22.1 2.6 20 12.3 SW 20 33 11 18 1014.7 1014.3 0.0
03/04:30pm 27.0 21.7 2.8 21 12.0 WSW 20 32 11 17 1014.9 1014.5 0.0
03/04:00pm 26.5 21.7 2.4 21 11.8 SW 17 26 9 14 1014.9 1014.5 0.0
03/03:30pm 27.0 21.7 2.1 20 12.2 WSW 19 30 10 16 1015.4 1015.0 0.0
03/03:00pm 26.2 21.4 2.8 22 11.5 WSW 17 32 9 17 1015.8 1015.4 0.0
03/02:30pm 26.4 22.1 5.4 26 10.8 SW 17 28 9 15 1016.0 1015.6 0.0
03/02:00pm 25.2 22.9 7.3 32 9.5 SW 9 19 5 10 1016.3 1015.9 0.0
03/01:30pm 25.1 21.9 8.6 35 8.9 SSW 15 26 8 14 1016.7 1016.3 0.0
03/01:00pm 24.1 20.1 8.1 36 8.5 SW 19 28 10 15 1017.1 1016.7 0.0
03/12:30pm 23.0 20.0 7.9 38 8.0 S 13 26 7 14 1017.4 1017.0 0.0
03/12:00pm 22.6 19.4 8.3 40 7.6 SSW 15 24 8 13 1017.6 1017.2 0.0
03/11:30am 21.7 18.5 8.6 43 7.0 S 15 24 8 13 1017.8 1017.4 0.0
03/11:00am 20.0 17.5 8.4 47 6.1 S 11 17 6 9 1017.7 1017.3 0.0
03/10:30am 18.8 16.7 8.2 50 5.5 S 9 15 5 8 1017.8 1017.4 0.0
03/10:00am 17.7 14.8 8.0 53 5.0 S 13 20 7 11 1017.4 1017.0 0.0
03/09:30am 17.0 13.4 8.4 57 4.4 S 17 20 9 11 1017.3 1016.9 0.0
03/09:00am 15.8 12.4 7.8 59 4.0 S 15 19 8 10 1017.2 1016.8 0.0
03/08:30am 14.4 11.2 7.0 61 3.6 SSW 13 17 7 9 1017.0 1016.6 0.0
03/08:00am 13.3 10.4 6.6 64 3.2 S 11 15 6 8 1016.6 1016.2 0.0
03/07:30am 13.3 10.7 6.2 62 3.4 S 9 11 5 6 1016.2 1015.8 0.0
03/07:00am 13.8 10.8 6.2 60 3.7 SSW 11 15 6 8 1015.9 1015.5 0.0
03/06:30am 15.2 12.7 6.7 57 4.2 S 9 13 5 7 1015.7 1015.3 0.0
03/06:00am 15.9 12.0 6.9 55 4.5 S 17 20 9 11 1015.6 1015.2 0.0
03/05:30am 16.6 13.5 7.3 54 4.7 S 13 17 7 9 1015.4 1015.0 0.0
03/05:00am 16.8 13.3 7.2 53 4.8 S 15 20 8 11 1015.0 1014.6 0.0
03/04:30am 17.0 13.5 7.1 52 5.0 SSE 15 19 8 10 1015.2 1014.8 0.0
03/04:00am 17.3 13.1 7.4 52 5.0 SSE 19 24 10 13 1015.0 1014.6 0.0
03/03:30am 17.6 14.1 7.4 51 5.2 SSE 15 19 8 10 1015.1 1014.7 0.0
03/03:00am 17.9 14.0 7.3 50 5.4 SSE 17 22 9 12 1015.1 1014.7 0.0
03/02:30am 18.2 13.8 7.3 49 5.5 SSE 20 26 11 14 1015.6 1015.2 0.0
03/02:00am 18.5 13.3 7.3 48 5.7 S 24 32 13 17 1015.6 1015.2 0.0
03/01:30am 18.9 13.7 7.4 47 5.9 S 24 32 13 17 1015.4 1015.0 0.0
03/01:00am 19.5 15.1 7.6 46 6.1 S 20 28 11 15 1015.7 1015.3 0.0
03/12:30am 20.0 15.7 7.7 45 6.4 S 20 24 11 13 1015.8 1015.4 0.0
03/12:00am 20.6 16.3 7.9 44 6.6 S 20 26 11 14 1015.3 1014.9 0.0
 
Date/Time
EDT
Temp
°C
App
Temp
°C
Dew
Point
Rel
Hum
%
Delta-T
°C
Wind Press
QNH
hPa
Press
MSL
hPa
Rain
since 9 am
mm
Dir
 
Spd
km/h
Gust
km/h
Spd
kts
Gust
kts
02/11:30pm 21.3 16.5 7.2 40 7.3 S 22 32 12 17 1015.2 1014.8 0.0
02/11:00pm 21.3 20.3 5.6 36 7.9 CALM 0 0 0 0 1015.0 1014.6 0.0

Other Formats:

Comma delimited format used in spreadsheet applications
http://www.bom.gov.au/fwo/IDV60801/IDV60801.94827.axf

JavaScript Object Notation format (JSON) in row-major order
http://www.bom.gov.au/fwo/IDV60801/IDV60801.94827.json